createdAt,value
2018-04-23T00:00:22.452Z,9.40
2018-04-23T00:01:22.549Z,8.80
2018-04-23T00:02:22.645Z,8.70
2018-04-23T00:03:22.749Z,9.10
2018-04-23T00:04:22.851Z,8.70
2018-04-23T00:05:22.967Z,9.00
2018-04-23T00:06:23.068Z,9.10
2018-04-23T00:07:23.165Z,9.80
2018-04-23T00:08:23.270Z,8.80
2018-04-23T00:09:23.363Z,9.50
2018-04-23T00:10:23.463Z,9.20
2018-04-23T00:11:23.564Z,9.10
2018-04-23T00:12:23.677Z,8.90
2018-04-23T00:13:23.773Z,9.40
2018-04-23T00:14:23.869Z,9.60
2018-04-23T00:15:23.974Z,9.70
2018-04-23T00:16:24.072Z,9.40
2018-04-23T00:17:24.170Z,9.70
2018-04-23T00:18:24.270Z,9.10
2018-04-23T00:19:24.387Z,9.90
2018-04-23T00:20:24.485Z,10.00
2018-04-23T00:21:24.587Z,9.80
2018-04-23T00:22:24.686Z,9.90
2018-04-23T00:23:24.782Z,9.70
2018-04-23T00:24:24.881Z,9.50
2018-04-23T00:25:24.979Z,9.60
2018-04-23T00:26:25.099Z,9.90
2018-04-23T00:27:25.197Z,9.60
2018-04-23T00:28:25.297Z,10.10
2018-04-23T00:29:25.403Z,10.20
2018-04-23T00:30:25.492Z,10.40
2018-04-23T00:31:25.592Z,9.60
2018-04-23T00:32:25.693Z,10.00
2018-04-23T00:33:25.810Z,10.00
2018-04-23T00:34:25.905Z,10.20
2018-04-23T00:35:26.005Z,10.50
2018-04-23T00:36:26.104Z,9.90
2018-04-23T00:37:26.201Z,9.70
2018-04-23T00:38:26.301Z,9.50
2018-04-23T00:39:26.394Z,10.50
2018-04-23T00:40:26.509Z,9.90
2018-04-23T00:41:26.618Z,10.60
2018-04-23T00:42:26.841Z,9.60
2018-04-23T00:43:26.855Z,10.10
2018-04-23T00:44:26.960Z,10.10
2018-04-23T00:45:27.066Z,10.10
2018-04-23T00:46:27.211Z,10.00
2018-04-23T00:47:27.322Z,10.80
2018-04-23T00:48:27.411Z,10.10
2018-04-23T00:49:27.493Z,10.00
2018-04-23T00:50:27.735Z,10.00
2018-04-23T00:51:27.692Z,10.00
2018-04-23T00:52:27.846Z,10.30
2018-04-23T00:53:27.948Z,10.00
2018-04-23T00:54:27.976Z,9.70
2018-04-23T00:55:28.100Z,10.00
2018-04-23T00:56:28.136Z,10.40
2018-04-23T00:57:28.221Z,10.90
2018-04-23T00:58:28.319Z,10.70
2018-04-23T00:59:28.455Z,10.10
2018-04-23T01:00:28.597Z,9.80
2018-04-23T01:01:28.891Z,9.70
2018-04-23T01:02:29.025Z,9.80
2018-04-23T01:03:28.970Z,9.90
2018-04-23T01:04:29.055Z,10.10
2018-04-23T01:05:29.187Z,9.80
2018-04-23T01:06:36.869Z,10.10
2018-04-23T01:07:29.337Z,10.70
2018-04-23T01:08:29.439Z,10.00
2018-04-23T01:09:29.552Z,10.00
2018-04-23T01:10:29.679Z,10.50
2018-04-23T01:11:29.852Z,10.20
2018-04-23T01:12:29.909Z,9.80
2018-04-23T01:13:30.039Z,10.90
2018-04-23T01:14:30.127Z,10.20
2018-04-23T01:15:30.240Z,10.20
2018-04-23T01:16:30.569Z,10.40
2018-04-23T01:17:30.477Z,10.10
2018-04-23T01:18:30.595Z,10.00
2018-04-23T01:19:30.635Z,10.10
2018-04-23T01:20:30.731Z,10.20
2018-04-23T01:21:30.831Z,11.10
2018-04-23T01:22:30.920Z,10.30
2018-04-23T01:23:31.082Z,11.10
2018-04-23T01:24:31.217Z,10.20
2018-04-23T01:25:31.247Z,10.30
2018-04-23T01:26:31.350Z,10.10
2018-04-23T01:27:31.483Z,10.20
2018-04-23T01:28:31.590Z,10.70
2018-04-23T01:29:31.711Z,10.80
2018-04-23T01:30:31.855Z,10.40
2018-04-23T01:31:31.961Z,10.60
2018-04-23T01:32:32.108Z,10.80
2018-04-23T01:33:32.257Z,10.60
2018-04-23T01:34:32.370Z,10.50
2018-04-23T01:35:32.478Z,10.70
2018-04-23T01:36:32.571Z,10.10
2018-04-23T01:37:32.653Z,11.10
2018-04-23T01:38:32.778Z,10.70
2018-04-23T01:39:32.875Z,10.40
2018-04-23T01:40:33.085Z,10.60
2018-04-23T01:41:33.082Z,10.70
2018-04-23T01:42:33.181Z,10.50
2018-04-23T01:43:33.309Z,10.60
2018-04-23T01:44:33.392Z,10.20
2018-04-23T01:45:33.482Z,9.70
2018-04-23T01:46:33.587Z,10.10
2018-04-23T01:47:33.702Z,10.60
2018-04-23T01:48:33.792Z,10.40
2018-04-23T01:49:33.877Z,10.10
2018-04-23T01:50:34.064Z,10.00
2018-04-23T01:51:34.039Z,10.60
2018-04-23T01:52:34.141Z,10.30
2018-04-23T01:53:34.258Z,9.90
2018-04-23T01:54:34.360Z,10.00
2018-04-23T01:55:34.464Z,9.70
2018-04-23T01:56:34.548Z,10.20
2018-04-23T01:57:34.641Z,9.60
2018-04-23T01:58:34.726Z,9.20
2018-04-23T01:59:34.813Z,9.90
2018-04-23T02:00:34.901Z,9.70
2018-04-23T02:01:34.991Z,9.90
2018-04-23T02:02:35.105Z,9.50
2018-04-23T02:03:35.219Z,9.70
2018-04-23T02:04:35.339Z,10.30
2018-04-23T02:05:35.430Z,10.10
2018-04-23T02:06:43.179Z,9.50
2018-04-23T02:07:35.659Z,9.20
2018-04-23T02:08:35.777Z,10.40
2018-04-23T02:09:35.858Z,9.50
2018-04-23T02:10:35.972Z,9.30
2018-04-23T02:11:36.057Z,10.10
2018-04-23T02:12:36.175Z,9.30
2018-04-23T02:13:36.286Z,9.70
2018-04-23T02:14:36.376Z,9.10
2018-04-23T02:15:36.460Z,9.70
2018-04-23T02:16:36.569Z,9.50
2018-04-23T02:17:36.705Z,9.30
2018-04-23T02:18:36.804Z,9.90
2018-04-23T02:19:36.957Z,9.20
2018-04-23T02:20:37.046Z,9.00
2018-04-23T02:21:37.134Z,9.40
2018-04-23T02:22:37.235Z,9.40
2018-04-23T02:23:37.325Z,9.10
2018-04-23T02:24:37.408Z,9.40
2018-04-23T02:25:37.505Z,9.20
2018-04-23T02:26:37.641Z,9.50
2018-04-23T02:27:37.638Z,9.60
2018-04-23T02:28:37.744Z,10.00
2018-04-23T02:29:37.838Z,9.90
2018-04-23T02:30:37.925Z,9.70
2018-04-23T02:31:38.036Z,9.70
2018-04-23T02:32:38.162Z,9.50
2018-04-23T02:33:38.243Z,10.30
2018-04-23T02:34:38.341Z,9.40
2018-04-23T02:35:38.435Z,10.10
2018-04-23T02:36:38.526Z,9.70
2018-04-23T02:37:38.660Z,9.60
2018-04-23T02:38:38.746Z,9.70
2018-04-23T02:39:38.848Z,9.60
2018-04-23T02:40:38.948Z,10.00
2018-04-23T02:41:39.049Z,10.90
2018-04-23T02:42:39.141Z,10.40
2018-04-23T02:43:39.239Z,10.60
2018-04-23T02:44:39.336Z,10.90
2018-04-23T02:45:39.440Z,11.30
2018-04-23T02:46:46.676Z,10.90
2018-04-23T02:47:39.650Z,10.90
2018-04-23T02:48:39.751Z,10.80
2018-04-23T02:49:39.849Z,10.80
2018-04-23T02:50:39.952Z,11.00
2018-04-23T02:51:40.049Z,11.40
2018-04-23T02:52:40.155Z,11.00
2018-04-23T02:53:40.248Z,11.00
2018-04-23T02:54:40.347Z,11.00
2018-04-23T02:55:40.447Z,10.40
2018-04-23T02:56:40.550Z,9.80
2018-04-23T02:57:40.648Z,9.70
2018-04-23T02:58:40.745Z,9.70
2018-04-23T02:59:40.855Z,9.10
2018-04-23T03:00:40.940Z,9.60
2018-04-23T03:01:41.038Z,10.30
2018-04-23T03:02:41.183Z,9.50
2018-04-23T03:03:41.295Z,10.30
2018-04-23T03:04:41.357Z,9.80
2018-04-23T03:05:41.456Z,10.40
2018-04-23T03:06:50.187Z,10.40
2018-04-23T03:07:41.664Z,10.80
2018-04-23T03:08:41.764Z,10.80
2018-04-23T03:09:41.867Z,10.50
2018-04-23T03:10:41.967Z,10.60
2018-04-23T03:11:42.070Z,10.30
2018-04-23T03:12:42.176Z,10.60
2018-04-23T03:13:42.268Z,10.80
2018-04-23T03:14:42.363Z,9.60
2018-04-23T03:15:42.463Z,10.00
2018-04-23T03:16:42.578Z,9.50
2018-04-23T03:17:42.681Z,9.60
2018-04-23T03:18:42.774Z,10.20
2018-04-23T03:19:42.876Z,10.10
2018-04-23T03:20:42.976Z,10.40
2018-04-23T03:21:43.078Z,10.40
2018-04-23T03:22:43.174Z,10.30
2018-04-23T03:23:43.277Z,10.40
2018-04-23T03:24:43.377Z,9.90
2018-04-23T03:25:43.478Z,10.60
2018-04-23T03:26:43.576Z,11.00
2018-04-23T03:27:43.677Z,9.90
2018-04-23T03:28:43.794Z,10.80
2018-04-23T03:29:43.893Z,10.70
2018-04-23T03:30:44.007Z,10.60
2018-04-23T03:31:44.103Z,10.60
2018-04-23T03:32:44.204Z,10.40
2018-04-23T03:33:44.303Z,10.90
2018-04-23T03:34:44.407Z,10.40
2018-04-23T03:35:44.503Z,11.00
2018-04-23T03:36:44.604Z,10.90
2018-04-23T03:37:44.712Z,11.30
2018-04-23T03:38:44.812Z,12.30
2018-04-23T03:39:44.911Z,12.70
2018-04-23T03:40:45.006Z,12.90
2018-04-23T03:41:45.104Z,12.90
2018-04-23T03:42:45.204Z,16.80
2018-04-23T03:43:45.304Z,19.90
2018-04-23T03:44:45.423Z,16.10
2018-04-23T03:45:45.520Z,15.40
2018-04-23T03:46:45.625Z,14.50
2018-04-23T03:47:53.872Z,15.10
2018-04-23T03:48:45.852Z,14.90
2018-04-23T03:49:45.953Z,15.30
2018-04-23T03:50:46.051Z,16.30
2018-04-23T03:51:46.147Z,14.60
2018-04-23T03:52:46.247Z,14.30
2018-04-23T03:53:46.347Z,14.40
2018-04-23T03:54:46.441Z,14.80
2018-04-23T03:55:46.540Z,14.50
2018-04-23T03:56:46.636Z,13.70
2018-04-23T03:57:46.748Z,13.40
2018-04-23T03:58:46.845Z,12.60
2018-04-23T03:59:46.958Z,12.10
2018-04-23T04:00:47.044Z,12.30
2018-04-23T04:01:47.145Z,13.10
2018-04-23T04:02:47.242Z,13.60
2018-04-23T04:03:47.340Z,12.50
2018-04-23T04:04:47.438Z,12.60
2018-04-23T04:05:47.558Z,13.20
2018-04-23T04:06:55.285Z,12.70
2018-04-23T04:07:47.757Z,12.90
2018-04-23T04:08:47.854Z,13.20
2018-04-23T04:09:47.956Z,12.40
2018-04-23T04:10:48.051Z,13.60
2018-04-23T04:11:48.156Z,12.60
2018-04-23T04:12:48.267Z,12.40
2018-04-23T04:13:48.367Z,12.40
2018-04-23T04:14:48.531Z,12.40
2018-04-23T04:15:48.508Z,12.70
2018-04-23T04:16:48.661Z,12.30
2018-04-23T04:17:48.709Z,12.70
2018-04-23T04:18:48.810Z,13.00
2018-04-23T04:19:48.904Z,13.40
2018-04-23T04:20:49.008Z,13.30
2018-04-23T04:21:49.110Z,13.40
2018-04-23T04:22:49.214Z,13.80
2018-04-23T04:23:49.306Z,14.40
2018-04-23T04:24:49.412Z,14.50
2018-04-23T04:25:49.508Z,15.00
2018-04-23T04:26:49.605Z,14.90
2018-04-23T04:27:49.709Z,14.50
2018-04-23T04:28:49.802Z,15.00
2018-04-23T04:29:49.901Z,15.50
2018-04-23T04:30:50.000Z,15.20
2018-04-23T04:31:50.090Z,14.60
2018-04-23T04:32:50.199Z,14.60
2018-04-23T04:33:50.293Z,15.10
2018-04-23T04:34:50.395Z,14.50
2018-04-23T04:35:50.498Z,15.00
2018-04-23T04:36:50.598Z,15.30
2018-04-23T04:37:50.698Z,16.40
2018-04-23T04:38:50.797Z,15.30
2018-04-23T04:39:50.907Z,14.80
2018-04-23T04:40:51.013Z,14.70
2018-04-23T04:41:51.108Z,15.80
2018-04-23T04:42:51.207Z,15.90
2018-04-23T04:43:51.308Z,15.10
2018-04-23T04:44:51.407Z,15.20
2018-04-23T04:45:51.505Z,15.90
2018-04-23T04:46:51.616Z,15.60
2018-04-23T04:47:51.717Z,14.90
2018-04-23T04:48:51.816Z,15.10
2018-04-23T04:49:51.914Z,14.30
2018-04-23T04:50:52.013Z,14.30
2018-04-23T04:51:52.109Z,15.30
2018-04-23T04:52:52.215Z,15.60
2018-04-23T04:53:52.333Z,14.80
2018-04-23T04:54:52.431Z,14.90
2018-04-23T04:55:52.533Z,14.90
2018-04-23T04:56:52.631Z,14.20
2018-04-23T04:57:52.732Z,15.00
2018-04-23T04:58:52.834Z,15.70
2018-04-23T04:59:52.934Z,15.30
2018-04-23T05:00:53.037Z,15.50
2018-04-23T05:01:53.134Z,14.50
2018-04-23T05:02:53.259Z,14.10
2018-04-23T05:03:53.345Z,13.50
2018-04-23T05:04:53.458Z,14.80
2018-04-23T05:05:53.543Z,15.00
2018-04-23T05:06:53.639Z,14.40
2018-04-23T05:07:53.757Z,14.50
2018-04-23T05:08:54.029Z,14.20
2018-04-23T05:09:54.058Z,14.60
2018-04-23T05:10:54.090Z,14.80
2018-04-23T05:11:54.190Z,15.00
2018-04-23T05:12:54.295Z,14.90
2018-04-23T05:13:54.393Z,13.80
2018-04-23T05:14:54.497Z,15.10
2018-04-23T05:15:54.591Z,15.50
2018-04-23T05:16:54.686Z,14.60
2018-04-23T05:17:54.792Z,15.30
2018-04-23T05:18:54.887Z,15.20
2018-04-23T05:19:54.991Z,15.90
2018-04-23T05:20:55.086Z,14.60
2018-04-23T05:21:55.189Z,14.90
2018-04-23T05:22:55.286Z,15.20
2018-04-23T05:23:55.696Z,15.00
2018-04-23T05:24:55.511Z,14.40
2018-04-23T05:25:55.617Z,14.80
2018-04-23T05:26:55.710Z,14.60
2018-04-23T05:27:55.826Z,14.80
2018-04-23T05:28:55.905Z,14.10
2018-04-23T05:29:56.038Z,14.10
2018-04-23T05:30:56.094Z,13.70
2018-04-23T05:31:56.195Z,13.60
2018-04-23T05:32:56.297Z,13.50
2018-04-23T05:33:56.397Z,13.80
2018-04-23T05:34:56.483Z,13.90
2018-04-23T05:35:57.987Z,12.70
2018-04-23T05:36:56.712Z,13.90
2018-04-23T05:37:56.922Z,13.40
2018-04-23T05:38:56.968Z,13.30
2018-04-23T05:39:57.209Z,13.90
2018-04-23T05:40:57.145Z,13.10
2018-04-23T05:41:57.103Z,14.10
2018-04-23T05:43:00.073Z,14.70
2018-04-23T05:43:57.555Z,14.60
2018-04-23T05:44:58.011Z,14.60
2018-04-23T05:45:57.560Z,15.00
2018-04-23T05:46:57.567Z,15.30
2018-04-23T05:47:57.781Z,14.30
2018-04-23T05:48:58.003Z,15.10
2018-04-23T05:49:58.019Z,14.90
2018-04-23T05:50:58.046Z,14.40
2018-04-23T05:51:58.182Z,15.10
2018-04-23T05:52:58.246Z,15.00
2018-04-23T05:53:58.369Z,15.00
2018-04-23T05:54:58.633Z,14.20
2018-04-23T05:55:58.673Z,14.80
2018-04-23T05:56:59.007Z,14.70
2018-04-23T05:57:58.771Z,14.50
2018-04-23T05:58:59.204Z,14.60
2018-04-23T05:59:58.966Z,14.50
2018-04-23T06:00:59.391Z,15.10
2018-04-23T06:01:59.257Z,14.70
2018-04-23T06:02:59.396Z,13.80
2018-04-23T06:03:59.946Z,14.30
2018-04-23T06:04:59.589Z,14.50
2018-04-23T06:05:59.710Z,14.50
2018-04-23T06:06:59.744Z,13.70
2018-04-23T06:07:59.843Z,14.60
2018-04-23T06:09:00.472Z,14.00
2018-04-23T06:10:00.017Z,14.60
2018-04-23T06:11:00.332Z,15.00
2018-04-23T06:12:02.190Z,14.40
2018-04-23T06:13:00.415Z,14.70
2018-04-23T06:14:00.889Z,15.30
2018-04-23T06:15:00.539Z,15.10
2018-04-23T06:16:03.568Z,14.30
2018-04-23T06:17:00.764Z,14.40
2018-04-23T06:18:00.811Z,14.80
2018-04-23T06:19:01.316Z,14.40
2018-04-23T06:20:01.034Z,14.60
2018-04-23T06:21:01.345Z,14.70
2018-04-23T06:22:01.272Z,13.90
2018-04-23T06:23:01.753Z,13.90
2018-04-23T06:24:01.596Z,14.50
2018-04-23T06:25:01.560Z,13.80
2018-04-23T06:26:01.961Z,13.90
2018-04-23T06:27:02.010Z,14.60
2018-04-23T06:28:02.287Z,14.80
2018-04-23T06:29:02.150Z,14.70
2018-04-23T06:30:02.633Z,14.20
2018-04-23T06:31:02.618Z,14.30
2018-04-23T06:32:02.507Z,15.00
2018-04-23T06:33:02.625Z,14.80
2018-04-23T06:34:02.766Z,15.30
2018-04-23T06:35:02.899Z,15.30
2018-04-23T06:36:02.962Z,13.80
2018-04-23T06:37:03.027Z,15.30
2018-04-23T06:38:03.180Z,15.10
2018-04-23T06:39:03.326Z,14.70
2018-04-23T06:40:03.417Z,15.10
2018-04-23T06:41:03.590Z,14.70
2018-04-23T06:42:03.700Z,15.00
2018-04-23T06:43:03.673Z,14.10
2018-04-23T06:44:03.766Z,14.70
2018-04-23T06:45:03.857Z,14.10
2018-04-23T06:46:04.107Z,14.50
2018-04-23T06:47:04.365Z,14.00
2018-04-23T06:48:04.223Z,14.70
2018-04-23T06:49:04.315Z,14.60
2018-04-23T06:50:04.423Z,14.70
2018-04-23T06:51:04.598Z,14.50
2018-04-23T06:52:04.576Z,14.10
2018-04-23T06:53:04.765Z,14.10
2018-04-23T06:54:04.739Z,14.00
2018-04-23T06:55:04.987Z,14.30
2018-04-23T06:56:04.941Z,13.80
2018-04-23T06:57:05.390Z,14.00
2018-04-23T06:58:05.135Z,14.20
2018-04-23T06:59:05.288Z,14.30
2018-04-23T07:00:05.291Z,14.10
2018-04-23T07:01:05.389Z,15.20
2018-04-23T07:02:05.540Z,14.10
2018-04-23T07:03:05.629Z,14.30
2018-04-23T07:04:05.785Z,14.00
2018-04-23T07:05:06.088Z,13.80
2018-04-23T07:06:06.073Z,13.80
2018-04-23T07:07:06.190Z,14.00
2018-04-23T07:08:06.273Z,14.10
2018-04-23T07:09:06.563Z,14.40
2018-04-23T07:10:06.444Z,14.30
2018-04-23T07:11:06.599Z,14.20
2018-04-23T07:12:06.739Z,14.00
2018-04-23T07:13:06.832Z,14.20
2018-04-23T07:14:06.936Z,14.50
2018-04-23T07:15:07.063Z,14.30
2018-04-23T07:16:07.162Z,14.40
2018-04-23T07:17:07.477Z,14.40
2018-04-23T07:18:07.393Z,15.00
2018-04-23T07:19:07.548Z,14.20
2018-04-23T07:20:07.663Z,14.70
2018-04-23T07:21:07.762Z,14.00
2018-04-23T07:22:08.010Z,13.40
2018-04-23T07:23:07.982Z,13.60
2018-04-23T07:24:08.197Z,14.20
2018-04-23T07:25:08.231Z,12.80
2018-04-23T07:26:08.215Z,13.90
2018-04-23T07:27:08.444Z,12.80
2018-04-23T07:28:08.519Z,12.70
2018-04-23T07:29:08.585Z,12.70
2018-04-23T07:30:08.622Z,12.80
2018-04-23T07:31:08.723Z,11.70
2018-04-23T07:32:08.829Z,12.40
2018-04-23T07:33:08.974Z,12.40
2018-04-23T07:34:09.083Z,12.00
2018-04-23T07:35:09.184Z,12.10
2018-04-23T07:36:09.293Z,12.40
2018-04-23T07:37:09.458Z,12.70
2018-04-23T07:38:09.459Z,12.20
2018-04-23T07:39:09.567Z,11.70
2018-04-23T07:40:09.693Z,12.20
2018-04-23T07:41:09.793Z,11.90
2018-04-23T07:42:09.890Z,11.20
2018-04-23T07:43:10.004Z,11.80
2018-04-23T07:44:10.040Z,11.40
2018-04-23T07:45:10.222Z,10.10
2018-04-23T07:46:10.198Z,10.60
2018-04-23T07:47:10.313Z,11.00
2018-04-23T07:48:10.431Z,10.60
2018-04-23T07:49:10.754Z,10.80
2018-04-23T07:50:10.609Z,10.70
2018-04-23T07:51:10.724Z,10.60
2018-04-23T07:52:10.815Z,10.80
2018-04-23T07:53:10.946Z,9.80
2018-04-23T07:54:11.098Z,10.00
2018-04-23T07:55:11.180Z,9.70
2018-04-23T07:56:11.439Z,10.10
2018-04-23T07:57:11.577Z,9.80
2018-04-23T07:58:11.490Z,8.50
2018-04-23T07:59:11.622Z,7.40
2018-04-23T08:00:11.780Z,7.10
2018-04-23T08:01:11.882Z,7.30
2018-04-23T08:02:12.061Z,6.70
2018-04-23T08:03:12.091Z,6.60
2018-04-23T08:04:12.285Z,6.80
2018-04-23T08:05:12.276Z,6.80
2018-04-23T08:06:13.646Z,6.50
2018-04-23T08:07:12.498Z,6.90
2018-04-23T08:08:12.603Z,6.80
2018-04-23T08:09:12.781Z,6.20
2018-04-23T08:10:12.881Z,7.00
2018-04-23T08:11:12.982Z,6.30
2018-04-23T08:12:13.169Z,6.40
2018-04-23T08:13:13.131Z,6.50
2018-04-23T08:14:13.233Z,7.20
2018-04-23T08:15:13.340Z,6.90
2018-04-23T08:16:13.442Z,7.30
2018-04-23T08:17:13.554Z,8.50
2018-04-23T08:18:14.420Z,8.20
2018-04-23T08:19:13.773Z,7.70
2018-04-23T08:20:13.889Z,7.30
2018-04-23T08:21:15.039Z,7.10
2018-04-23T08:22:14.118Z,7.20
2018-04-23T08:23:14.220Z,6.80
2018-04-23T08:24:14.371Z,6.80
2018-04-23T08:25:14.520Z,6.80
2018-04-23T08:26:14.675Z,6.50
2018-04-23T08:27:14.783Z,6.60
2018-04-23T08:28:14.886Z,6.10
2018-04-23T08:29:15.512Z,6.50
2018-04-23T08:30:15.114Z,6.60
2018-04-23T08:31:15.210Z,6.20
2018-04-23T08:32:15.310Z,6.90
2018-04-23T08:33:15.459Z,6.70
2018-04-23T08:34:15.562Z,6.40
2018-04-23T08:35:15.662Z,6.30
2018-04-23T08:36:15.769Z,6.20
2018-04-23T08:37:15.878Z,6.30
2018-04-23T08:38:15.978Z,6.30
2018-04-23T08:39:16.080Z,6.00
2018-04-23T08:40:16.188Z,5.90
2018-04-23T08:41:16.287Z,6.70
2018-04-23T08:42:16.393Z,6.10
2018-04-23T08:43:16.497Z,6.00
2018-04-23T08:44:16.603Z,6.30
2018-04-23T08:45:16.707Z,6.10
2018-04-23T08:46:16.813Z,5.80
2018-04-23T08:47:16.918Z,5.80
2018-04-23T08:48:17.014Z,5.50
2018-04-23T08:49:17.117Z,5.40
2018-04-23T08:50:17.220Z,5.60
2018-04-23T08:51:17.329Z,5.50
2018-04-23T08:52:17.427Z,5.50
2018-04-23T08:53:17.537Z,6.20
2018-04-23T08:54:17.642Z,5.70
2018-04-23T08:55:17.745Z,6.00
2018-04-23T08:56:17.847Z,5.70
2018-04-23T08:57:17.949Z,5.20
2018-04-23T08:58:18.056Z,5.40
2018-04-23T08:59:18.161Z,5.50
2018-04-23T09:00:18.272Z,5.20
2018-04-23T09:01:18.364Z,5.50
2018-04-23T09:02:18.469Z,5.80
2018-04-23T09:03:18.573Z,5.60
2018-04-23T09:04:18.675Z,5.70
2018-04-23T09:05:18.778Z,5.80
2018-04-23T09:06:18.884Z,5.70
2018-04-23T09:07:18.988Z,5.60
2018-04-23T09:08:19.095Z,5.40
2018-04-23T09:09:19.192Z,5.70
2018-04-23T09:10:19.297Z,5.60
2018-04-23T09:11:19.403Z,5.30
2018-04-23T09:12:19.506Z,5.40
2018-04-23T09:13:19.608Z,5.60
2018-04-23T09:14:19.712Z,5.60
2018-04-23T09:15:19.818Z,4.90
2018-04-23T09:16:19.934Z,5.20
2018-04-23T09:17:20.035Z,5.20
2018-04-23T09:18:20.140Z,5.20
2018-04-23T09:19:20.253Z,5.40
2018-04-23T09:20:20.338Z,5.30
2018-04-23T09:21:20.455Z,4.90
2018-04-23T09:22:20.557Z,5.60
2018-04-23T09:23:20.662Z,5.30
2018-04-23T09:24:20.763Z,5.10
2018-04-23T09:25:20.869Z,5.60
2018-04-23T09:26:20.973Z,4.70
2018-04-23T09:27:21.080Z,5.50
2018-04-23T09:28:21.185Z,5.10
2018-04-23T09:29:21.284Z,5.50
2018-04-23T09:30:21.389Z,5.30
2018-04-23T09:31:21.484Z,5.30
2018-04-23T09:32:21.585Z,5.40
2018-04-23T09:33:21.691Z,5.60
2018-04-23T09:34:21.794Z,5.30
2018-04-23T09:35:21.895Z,5.50
2018-04-23T09:36:22.003Z,5.70
2018-04-23T09:37:22.100Z,5.10
2018-04-23T09:38:22.195Z,5.50
2018-04-23T09:39:22.297Z,5.30
2018-04-23T09:40:22.404Z,5.40
2018-04-23T09:41:22.511Z,5.30
2018-04-23T09:42:22.615Z,5.50
2018-04-23T09:43:22.718Z,5.30
2018-04-23T09:44:22.829Z,5.40
2018-04-23T09:45:22.911Z,5.60
2018-04-23T09:46:23.020Z,5.80
2018-04-23T09:47:23.124Z,5.60
2018-04-23T09:48:23.227Z,5.10
2018-04-23T09:49:23.333Z,5.50
2018-04-23T09:50:23.449Z,5.20
2018-04-23T09:51:23.538Z,5.70
2018-04-23T09:52:23.695Z,5.80
2018-04-23T09:53:23.799Z,5.70
2018-04-23T09:54:23.900Z,6.20
2018-04-23T09:55:24.007Z,5.60
2018-04-23T09:56:24.110Z,5.60
2018-04-23T09:57:24.215Z,6.00
2018-04-23T09:58:24.325Z,5.60
2018-04-23T09:59:24.419Z,5.70
2018-04-23T10:00:24.518Z,5.70
2018-04-23T10:01:24.620Z,5.50
2018-04-23T10:02:24.730Z,6.30
2018-04-23T10:03:24.834Z,6.00
2018-04-23T10:04:24.938Z,6.00
2018-04-23T10:05:25.041Z,5.50
2018-04-23T10:06:25.144Z,6.10
2018-04-23T10:07:25.239Z,5.30
2018-04-23T10:08:25.352Z,6.00
2018-04-23T10:09:25.461Z,5.80
2018-04-23T10:10:25.558Z,5.80
2018-04-23T10:11:25.663Z,5.40
2018-04-23T10:12:25.790Z,5.20
2018-04-23T10:13:25.894Z,5.50
2018-04-23T10:14:26.017Z,6.20
2018-04-23T10:15:26.124Z,6.00
2018-04-23T10:16:26.232Z,5.60
2018-04-23T10:17:26.337Z,6.10
2018-04-23T10:18:26.451Z,5.80
2018-04-23T10:19:26.539Z,6.20
2018-04-23T10:20:27.525Z,5.90
2018-04-23T10:21:26.936Z,5.70
2018-04-23T10:22:26.911Z,5.90
2018-04-23T10:23:27.002Z,5.90
2018-04-23T10:24:27.102Z,5.70
2018-04-23T10:25:27.289Z,6.10
2018-04-23T10:26:27.394Z,6.40
2018-04-23T10:27:27.425Z,6.20
2018-04-23T10:28:27.447Z,6.10
2018-04-23T10:29:28.792Z,5.30
2018-04-23T10:30:27.645Z,5.50
2018-04-23T10:31:27.891Z,5.40
2018-04-23T10:32:27.843Z,5.60
2018-04-23T10:33:27.963Z,5.90
2018-04-23T10:34:28.205Z,5.60
2018-04-23T10:35:28.094Z,5.60
2018-04-23T10:36:28.213Z,5.80
2018-04-23T10:37:28.309Z,5.70
2018-04-23T10:38:28.456Z,5.80
2018-04-23T10:39:28.638Z,5.50
2018-04-23T10:40:28.760Z,6.10
2018-04-23T10:41:28.762Z,5.90
2018-04-23T10:42:29.014Z,5.40
2018-04-23T10:43:29.063Z,5.80
2018-04-23T10:44:29.139Z,5.70
2018-04-23T10:45:29.409Z,5.90
2018-04-23T10:46:29.393Z,6.00
2018-04-23T10:47:29.506Z,5.90
2018-04-23T10:48:29.718Z,5.50
2018-04-23T10:49:29.812Z,5.40
2018-04-23T10:50:29.819Z,6.30
2018-04-23T10:51:32.012Z,5.30
2018-04-23T10:52:30.079Z,5.60
2018-04-23T10:53:30.276Z,5.30
2018-04-23T10:54:30.465Z,5.60
2018-04-23T10:55:30.489Z,5.80
2018-04-23T10:56:30.680Z,5.70
2018-04-23T10:57:30.702Z,6.10
2018-04-23T10:58:30.880Z,5.70
2018-04-23T10:59:30.918Z,6.40
2018-04-23T11:00:31.157Z,5.50
2018-04-23T11:01:31.127Z,5.50
2018-04-23T11:02:31.224Z,5.50
2018-04-23T11:03:31.234Z,5.70
2018-04-23T11:04:31.508Z,6.10
2018-04-23T11:05:31.420Z,5.60
2018-04-23T11:06:31.628Z,6.10
2018-04-23T11:07:31.644Z,5.90
2018-04-23T11:08:31.907Z,6.40
2018-04-23T11:09:31.897Z,5.50
2018-04-23T11:10:31.988Z,5.80
2018-04-23T11:11:32.179Z,6.20
2018-04-23T11:12:32.181Z,5.20
2018-04-23T11:13:32.309Z,5.90
2018-04-23T11:14:32.430Z,5.80
2018-04-23T11:15:32.558Z,5.90
2018-04-23T11:16:32.772Z,6.00
2018-04-23T11:17:32.789Z,5.60
2018-04-23T11:18:32.876Z,5.20
2018-04-23T11:19:32.968Z,5.70
2018-04-23T11:20:33.087Z,5.50
2018-04-23T11:21:33.290Z,5.70
2018-04-23T11:22:33.377Z,5.30
2018-04-23T11:23:33.458Z,5.50
2018-04-23T11:24:33.570Z,5.50
2018-04-23T11:25:33.695Z,6.20
2018-04-23T11:26:33.797Z,5.90
2018-04-23T11:27:34.334Z,6.20
2018-04-23T11:28:34.096Z,5.50
2018-04-23T11:29:34.216Z,5.90
2018-04-23T11:30:34.319Z,6.20
2018-04-23T11:31:34.414Z,6.10
2018-04-23T11:32:34.570Z,6.00
2018-04-23T11:33:34.668Z,6.10
2018-04-23T11:34:34.808Z,6.20
2018-04-23T11:35:34.837Z,6.00
2018-04-23T11:36:34.946Z,5.90
2018-04-23T11:37:35.054Z,6.10
2018-04-23T11:38:35.158Z,6.30
2018-04-23T11:39:35.262Z,5.60
2018-04-23T11:40:35.363Z,6.30
2018-04-23T11:41:35.459Z,5.20
2018-04-23T11:42:35.546Z,5.50
2018-04-23T11:43:35.678Z,5.40
2018-04-23T11:44:35.771Z,5.40
2018-04-23T11:45:35.888Z,5.30
2018-04-23T11:46:36.021Z,5.10
2018-04-23T11:47:36.121Z,5.50
2018-04-23T11:48:36.225Z,5.50
2018-04-23T11:49:36.328Z,5.20
2018-04-23T11:50:36.455Z,5.30
2018-04-23T11:51:36.653Z,5.40
2018-04-23T11:52:36.634Z,5.70
2018-04-23T11:53:36.732Z,5.20
2018-04-23T11:54:36.862Z,5.00
2018-04-23T11:55:36.941Z,5.30
2018-04-23T11:56:37.049Z,5.60
2018-04-23T11:57:37.156Z,5.40
2018-04-23T11:58:37.266Z,4.90
2018-04-23T11:59:37.393Z,4.70
2018-04-23T12:00:37.491Z,5.10
2018-04-23T12:01:37.599Z,5.00
2018-04-23T12:02:37.717Z,4.80
2018-04-23T12:03:37.853Z,4.70
2018-04-23T12:04:37.983Z,4.80
2018-04-23T12:05:38.088Z,4.60
2018-04-23T12:06:38.200Z,5.00
2018-04-23T12:07:38.366Z,4.60
2018-04-23T12:08:38.357Z,4.80
2018-04-23T12:09:38.462Z,4.20
2018-04-23T12:10:38.577Z,4.80
2018-04-23T12:11:38.684Z,4.70
2018-04-23T12:12:38.798Z,5.00
2018-04-23T12:13:39.012Z,5.00
2018-04-23T12:14:39.244Z,4.70
2018-04-23T12:15:39.143Z,5.20
2018-04-23T12:16:39.257Z,4.40
2018-04-23T12:17:39.405Z,5.30
2018-04-23T12:18:39.537Z,5.00
2018-04-23T12:19:39.646Z,4.90
2018-04-23T12:20:39.776Z,4.90
2018-04-23T12:21:39.915Z,4.60
2018-04-23T12:22:39.988Z,4.80
2018-04-23T12:23:40.096Z,4.60
2018-04-23T12:24:40.204Z,4.80
2018-04-23T12:25:40.305Z,5.10
2018-04-23T12:26:40.411Z,5.00
2018-04-23T12:27:40.515Z,4.50
2018-04-23T12:28:40.620Z,4.90
2018-04-23T12:29:40.725Z,4.60
2018-04-23T12:30:40.847Z,4.40
2018-04-23T12:31:40.949Z,4.80
2018-04-23T12:32:41.059Z,5.00
2018-04-23T12:33:41.166Z,4.70
2018-04-23T12:34:41.267Z,4.60
2018-04-23T12:35:41.365Z,5.10
2018-04-23T12:36:41.472Z,4.70
2018-04-23T12:37:41.578Z,5.00
2018-04-23T12:38:41.689Z,4.60
2018-04-23T12:39:41.840Z,4.90
2018-04-23T12:40:41.899Z,4.60
2018-04-23T12:41:42.004Z,4.40
2018-04-23T12:42:42.107Z,4.60
2018-04-23T12:43:42.216Z,5.30
2018-04-23T12:44:42.318Z,5.10
2018-04-23T12:45:42.436Z,4.60
2018-04-23T12:46:42.527Z,4.50
2018-04-23T12:47:42.632Z,5.00
2018-04-23T12:48:42.739Z,4.50
2018-04-23T12:49:42.854Z,4.40
2018-04-23T12:50:42.952Z,4.40
2018-04-23T12:51:43.058Z,4.40
2018-04-23T12:52:43.182Z,3.90
2018-04-23T12:53:43.287Z,5.00
2018-04-23T12:54:43.396Z,4.10
2018-04-23T12:55:43.499Z,4.40
2018-04-23T12:56:43.606Z,4.40
2018-04-23T12:57:43.711Z,4.40
2018-04-23T12:58:43.815Z,4.10
2018-04-23T12:59:43.920Z,4.40
2018-04-23T13:00:44.021Z,4.70
2018-04-23T13:01:44.127Z,4.70
2018-04-23T13:02:44.234Z,4.70
2018-04-23T13:03:44.345Z,4.60
2018-04-23T13:04:44.454Z,4.20
2018-04-23T13:05:44.558Z,4.40
2018-04-23T13:06:44.667Z,4.10